Flight Track Log - Related Links

Times and Time Zones

All times are in EDT time to prevent confusion due to time zone crossing. See the EJA929 flight status page for this flight to view local times or setup timezone preferences in your user account.

Time Position Orientation Groundspeed Altitude Reporting Facility
EDT Latitude Longitude Course Direction KTS MPH feet Rate Location/Type
Mon 06:57:56 PM 34.4267 -119.8639 266° West 161 185 700  Level Los Angeles Center
Mon 06:59:09 PM 34.4206 -119.9625 266° West 257 296 3,400 2,597 Climbing Los Angeles Center
Mon 07:00:10 PM 34.4161 -120.0603 267° West 279 321 6,500 2,282 Climbing Los Angeles Center
Mon 07:01:31 PM 34.4475 -120.1703 289° West 286 329 8,800 1,888 Climbing Los Angeles Center
Mon 07:02:33 PM 34.5361 -120.1656 North 305 351 11,000 1,742 Climbing Los Angeles Center
Mon 07:03:35 PM 34.6400 -120.1567 North 358 412 12,400 1,548 Climbing Los Angeles Center
Mon 07:04:37 PM 34.7444 -120.1758 351° North 379 436 14,200 1,597 Climbing Los Angeles Center
Mon 07:05:39 PM 34.8464 -120.2033 348° North 383 441 15,700 1,355 Climbing Los Angeles Center
Mon 07:06:41 PM 34.9564 -120.2322 348° North 399 459 17,000 1,645 Climbing Los Angeles Center
Mon 07:07:43 PM 35.0883 -120.2675 348° North 407 468 19,100 1,645 Climbing Los Angeles Center
Mon 07:08:45 PM 35.2006 -120.2967 348° North 412 474 20,400 1,306 Climbing Los Angeles Center
Mon 07:09:47 PM 35.3172 -120.3272 348° North 424 488 21,800 1,355 Climbing Los Angeles Center
Mon 07:10:49 PM 35.4347 -120.3594 347° North 432 497 23,200 1,680 Climbing Los Angeles Center
Mon 07:11:52 PM 35.5539 -120.3922 347° North 438 504 25,300 1,761 Climbing Los Angeles Center
Mon 07:12:38 PM 35.6631 -120.4214 348° North 440 506 26,400 1,444 Climbing Oakland Center
Mon 07:13:40 PM 35.7794 -120.4783 338° Northwest 457 526 27,900 1,463 Climbing Oakland Center
Mon 07:14:41 PM 35.8928 -120.5481 334° Northwest 455 524 29,400 1,463 Climbing Oakland Center
Mon 07:15:43 PM 36.0086 -120.6206 333° Northwest 463 533 30,900 1,463 Climbing Oakland Center
Mon 07:16:44 PM 36.1272 -120.6919 334° Northwest 475 547 32,400 1,463 Climbing Oakland Center
Mon 07:17:46 PM 36.2619 -120.7242 349° North 489 563 33,900 1,463 Climbing Oakland Center
Mon 07:18:47 PM 36.4278 -120.7519 352° North 501 577 35,400 1,659 Climbing Oakland Center
Mon 07:19:49 PM 36.5708 -120.7761 352° North 516 594 37,300 1,951 Climbing Oakland Center
Mon 07:20:50 PM 36.7089 -120.7978 353° North 501 577 39,400 1,366 Climbing Oakland Center
Mon 07:21:52 PM 36.8469 -120.8247 351° North 497 572 40,100 341 Climbing Oakland Center
Mon 07:22:53 PM 36.9919 -120.8492 352° North 522 601 40,100 -49 Level Oakland Center
Mon 07:23:55 PM 37.1428 -120.8756 352° North 542 624 40,000  Descending Oakland Center
Mon 07:24:57 PM 37.2939 -120.9017 352° North 548 631 40,100 49 Climbing Oakland Center
Mon 07:25:58 PM 37.4464 -120.9294 352° North 552 635 40,100  Level Oakland Center
Mon 07:27:00 PM 37.5986 -120.9567 352° North 552 635 40,100  Level Oakland Center
Mon 07:28:01 PM 37.7839 -120.9869 353° North 558 642 40,100 -49 Level Oakland Center
Mon 07:29:03 PM 37.9364 -121.0142 352° North 556 640 40,000  Descending Oakland Center
Mon 07:30:05 PM 38.0889 -121.0411 352° North 554 638 40,100 48 Climbing Oakland Center
Mon 07:31:07 PM 38.2417 -121.0692 352° North 556 640 40,100 -49 Level Oakland Center
Mon 07:32:08 PM 38.3939 -121.0961 352° North 555 639 40,000 -49 Descending Oakland Center
Mon 07:33:10 PM 38.5369 -121.1617 340° North 553 636 40,000  Level Oakland Center
Mon 07:34:12 PM 38.6872 -121.2692 331° Northwest 549 632 40,000 49 Level Oakland Center
Mon 07:35:13 PM 38.8156 -121.3694 329° Northwest 548 631 40,100 49 Climbing Oakland Center
Mon 07:36:15 PM 38.9492 -121.4603 332° Northwest 546 628 40,100  Level Oakland Center
Mon 07:37:17 PM 39.0969 -121.5164 344° North 555 639 40,100 -49 Level Oakland Center
Mon 07:38:18 PM 39.2533 -121.5433 352° North 565 650 40,000  Descending Oakland Center
Mon 07:39:20 PM 39.4417 -121.5700 354° North 567 652 40,100 48 Climbing Oakland Center
Mon 07:40:22 PM 39.5858 -121.5894 354° North 568 654 40,100  Level Oakland Center
Mon 07:41:23 PM 39.7425 -121.6136 353° North 570 656 40,100  Level Oakland Center
Mon 07:42:25 PM 39.9000 -121.6375 353° North 573 659 40,100  Level Oakland Center
Mon 07:43:27 PM 40.0883 -121.6653 354° North 574 661 40,100  Level Oakland Center
Mon 07:44:28 PM 40.2461 -121.6883 354° North 575 662 40,100  Level Oakland Center
Mon 07:45:30 PM 40.4028 -121.7117 354° North 574 661 40,100  Level Oakland Center
Mon 07:46:32 PM 40.5575 -121.7342 354° North 566 651 40,100  Level Oakland Center
Mon 07:47:34 PM 40.7158 -121.7594 353° North 572 658 40,100  Level Oakland Center
Mon 07:48:35 PM 40.9058 -121.7889 353° North 573 659 40,100  Level Oakland Center
Mon 07:49:37 PM 41.0658 -121.8131 354° North 578 665 40,100  Level Oakland Center
Mon 07:50:39 PM 41.2033 -121.8389 352° North 585 673 40,100  Level Oakland Center
Mon 07:51:41 PM 41.3964 -121.8686 353° North 584 672 40,100 -49 Level Oakland Center
Mon 07:52:42 PM 41.5578 -121.8928 354° North 585 673 40,000  Descending Oakland Center
Mon 07:53:44 PM 41.7203 -121.9172 354° North 587 676 40,100  Climbing Oakland Center
Mon 07:54:46 PM 41.8817 -121.9422 353° North 586 674 40,000  Descending Oakland Center
Mon 07:55:47 PM 42.0681 -121.9725 353° North 590 679 40,100  Climbing Oakland Center
Mon 07:56:51 PM 42.2272 -121.9964 354° North 586 674 40,000  Descending Seattle Center
Mon 07:57:52 PM 42.3878 -122.0222 353° North 581 669 40,100 49 Climbing Seattle Center
Mon 07:58:53 PM 42.5506 -122.0492 353° North 586 674 40,100  Level Seattle Center
Mon 07:59:54 PM 42.7142 -122.0756 353° North 592 681 40,100 -49 Level Seattle Center
Mon 08:00:55 PM 42.8783 -122.1019 353° North 594 684 40,000  Descending Seattle Center
Mon 08:01:56 PM 43.0414 -122.1283 353° North 592 681 40,100  Climbing Seattle Center
Mon 08:02:57 PM 43.2050 -122.1542 353° North 592 681 40,000  Descending Seattle Center
Mon 08:03:58 PM 43.4011 -122.1858 353° North 598 688 40,100 49 Climbing Seattle Center
Mon 08:04:59 PM 43.5647 -122.2133 353° North 596 686 40,100 -49 Level Seattle Center
Mon 08:06:00 PM 43.7281 -122.2419 353° North 595 685 40,000  Descending Seattle Center
Mon 08:07:01 PM 43.8939 -122.2683 353° North 605 696 40,100 49 Climbing Seattle Center
Mon 08:08:02 PM 44.0594 -122.2953 353° North 602 693 40,100  Level Seattle Center
Mon 08:09:03 PM 44.2239 -122.3244 353° North 600 690 40,100  Level Seattle Center
Mon 08:10:04 PM 44.3894 -122.3522 353° North 603 694 40,100  Level Seattle Center
Mon 08:11:05 PM 44.5550 -122.3808 353° North 603 694 40,100  Level Seattle Center
Mon 08:12:06 PM 44.7519 -122.4161 353° North 601 692 40,100 -49 Level Seattle Center
Mon 08:13:07 PM 44.8894 -122.4406 353° North 584 672 40,000 -49 Descending Seattle Center
Mon 08:14:08 PM 45.0508 -122.4678 353° North 585 673 40,000  Level Seattle Center
Mon 08:15:09 PM 45.2136 -122.4961 353° North 593 682 40,000 -148 Level Seattle Center
Mon 08:16:10 PM 45.3767 -122.5239 353° North 594 684 39,700 -1,672 Descending Seattle Center
Mon 08:17:11 PM 45.5667 -122.5581 353° North 579 666 36,600 -2,902 Descending Seattle Center
Mon 08:18:12 PM 45.7244 -122.5861 353° North 576 663 33,800 -2,213 Descending Seattle Center
Mon 08:19:13 PM 45.8697 -122.6203 351° North 531 611 32,100 -1,377 Descending Seattle Center
Mon 08:20:14 PM 46.0097 -122.6561 350° North 514 592 31,000 -541 Descending Seattle Center
Mon 08:21:15 PM 46.1536 -122.6897 351° North 524 603 31,000  Level Seattle Center
Mon 08:22:16 PM 46.3117 -122.7319 350° North 529 609 31,000 -443 Level Seattle Center
Mon 08:23:17 PM 46.4561 -122.7686 350° North 530 610 30,100 -1,082 Descending Seattle Center
Mon 08:24:18 PM 46.5944 -122.8064 349° North 514 592 28,800 -1,299 Descending Seattle Center
Mon 08:25:31 PM 46.7706 -122.8525 350° North 491 565 27,200 -1,515 Descending Seattle Center
Mon 08:26:01 PM 46.8294 -122.8664 351° North 475 547 26,200 -2,073 Descending Seattle Center
Mon 08:27:21 PM 46.9811 -122.8672 360° North 451 519 23,400 -2,085 Descending Seattle Center
Mon 08:28:22 PM 47.0769 -122.7706 34° Northeast 422 486 21,300 -2,680 Descending Seattle Center
Mon 08:29:04 PM 47.1497 -122.6750 42° Northeast 399 459 18,800 -3,098 Descending Seattle Center
Mon 08:30:24 PM 47.2514 -122.5442 41° Northeast 360 414 15,000 -2,813 Descending Seattle Center
Mon 08:31:12 PM 47.3119 -122.4992 27° Northeast 329 379 12,800 -1,981 Descending Seattle Center
Mon 08:32:07 PM 47.3933 -122.5231 349° North 317 365 11,600 -1,345 Descending Seattle Center
Mon 08:33:08 PM 47.4750 -122.5472 349° North 276 318 10,200 -1,714 Descending Seattle Center
Mon 08:34:20 PM 47.5647 -122.5769 347° North 258 297 7,800 -1,843 Descending Seattle Center
Mon 08:35:15 PM 47.6261 -122.5925 350° North 248 285 6,300 -1,582 Descending Seattle Center
Mon 08:36:10 PM 47.6825 -122.6044 352° North 219 252 4,900 -1,131 Descending Seattle Center
Mon 08:37:17 PM 47.7394 -122.5831 14° North 220 253 4,000 -516 Descending Seattle Center
Mon 08:38:18 PM 47.7408 -122.5000 89° East 206 237 3,800 -794 Descending Seattle Center
Mon 08:39:33 PM 47.6886 -122.4378 141° Southeast 197 227 2,200 -787 Descending Seattle Center
Mon 08:40:20 PM 47.6592 -122.4133 151° Southeast 164 189 2,200 -167 Level Seattle Center
Mon 08:41:21 PM 47.6219 -122.3814 150° Southeast 149 171 1,900 -541 Descending Seattle Center
Mon 08:42:22 PM 47.5878 -122.3508 149° Southeast 142 163 1,100 -750 Descending Seattle Center
Mon 08:43:37 PM 47.5433 -122.3144 151° Southeast 138 159 200 -441 Descending Seattle Center
Mon 08:44:38 PM 47.5106 -122.2886 152° Southeast 138 159 100 -98 Descending Seattle Center

Login

Don't have an account? Register now (free) for customized features, flight alerts, and more!